Time;durP1;ratioP1;P1;durP2;ratioP2;P2;SDS_P1;SDS_P2;PMS_P1;PMS_P2;Temp;Humidity;BMP_temperature;BMP_pressure;BME280_temperature;BME280_humidity;BME280_pressure;Samples;Min_cycle;Max_cycle;Signal;HPM_P1;HPM_P2
2023/12/16 00:01:48;;;;;;;;;;;20.00;47.00;;;;;;5105846;28;19932;-57
2023/12/16 00:04:15;;;;;;;;;;;20.00;47.00;;;;;;5107374;28;19976;-57
2023/12/16 00:06:43;;;;;;;;;;;19.90;46.90;;;;;;5121495;28;19931;-56
2023/12/16 00:09:10;;;;;;;;;;;19.90;46.90;;;;;;5120216;28;19950;-56
2023/12/16 00:11:36;;;;;;;;;;;19.90;46.90;;;;;;5101158;28;19924;-56
2023/12/16 00:14:03;;;;;;;;;;;20.00;47.00;;;;;;5099491;28;19924;-57
2023/12/16 00:16:30;;;;;;;;;;;20.00;46.90;;;;;;5097741;28;19931;-57
2023/12/16 00:18:56;;;;;;;;;;;20.00;46.90;;;;;;5102008;28;19931;-57
2023/12/16 00:21:23;;;;;;;;;;;19.90;46.90;;;;;;5104260;28;19931;-57
2023/12/16 00:23:51;;;;;;;;;;;20.00;46.90;;;;;;5105629;28;19931;-57
2023/12/16 00:26:18;;;;;;;;;;;20.00;46.90;;;;;;5102198;28;19923;-56
2023/12/16 00:28:45;;;;;;;;;;;19.90;46.80;;;;;;5101192;28;19924;-57
2023/12/16 00:31:12;;;;;;;;;;;20.00;46.90;;;;;;5099767;28;19931;-56
2023/12/16 00:33:38;;;;;;;;;;;19.90;46.90;;;;;;5102301;28;19931;-58
2023/12/16 00:36:06;;;;;;;;;;;19.90;46.80;;;;;;5117733;28;19927;-56
2023/12/16 00:38:33;;;;;;;;;;;19.90;46.90;;;;;;5118756;28;19924;-57
2023/12/16 00:41:01;;;;;;;;;;;20.00;47.00;;;;;;5114904;28;19980;-57
2023/12/16 00:43:28;;;;;;;;;;;20.00;46.90;;;;;;5104684;28;19924;-60
2023/12/16 00:45:55;;;;;;;;;;;19.90;46.80;;;;;;5108959;28;19923;-59
2023/12/16 00:48:22;;;;;;;;;;;19.90;46.90;;;;;;5118823;28;19936;-59
2023/12/16 00:50:49;;;;;;;;;;;20.00;46.90;;;;;;5082194;28;19930;-60
2023/12/16 00:53:15;;;;;;;;;;;19.90;46.80;;;;;;5097531;28;19930;-58
2023/12/16 00:55:42;;;;;;;;;;;19.90;46.90;;;;;;5116907;27;19936;-59
2023/12/16 00:58:10;;;;;;;;;;;19.90;46.80;;;;;;5102699;27;20444;-58
2023/12/16 01:00:37;;;;;;;;;;;19.90;46.80;;;;;;5098936;28;19924;-59
2023/12/16 01:03:04;;;;;;;;;;;19.90;46.80;;;;;;5113018;27;19931;-59
2023/12/16 01:05:31;;;;;;;;;;;19.90;46.80;;;;;;5106168;28;19931;-59
2023/12/16 01:07:58;;;;;;;;;;;19.90;47.40;;;;;;5117488;27;19924;-58
2023/12/16 01:10:25;;;;;;;;;;;19.90;46.80;;;;;;5110877;27;19928;-59
2023/12/16 01:12:51;;;;;;;;;;;19.90;46.80;;;;;;5106175;27;20026;-59
2023/12/16 01:15:20;;;;;;;;;;;19.90;46.80;;;;;;5111083;27;19923;-59
2023/12/16 01:17:46;;;;;;;;;;;19.90;46.80;;;;;;5105162;27;19924;-59
2023/12/16 01:20:13;;;;;;;;;;;19.90;46.80;;;;;;5117773;27;19928;-59
2023/12/16 01:22:40;;;;;;;;;;;19.90;46.80;;;;;;5101566;27;19946;-59
2023/12/16 01:25:07;;;;;;;;;;;19.90;46.70;;;;;;5114360;27;20239;-59
2023/12/16 01:27:34;;;;;;;;;;;19.90;46.80;;;;;;5105592;28;19924;-60
2023/12/16 01:30:01;;;;;;;;;;;19.90;46.80;;;;;;5113826;27;19924;-58
2023/12/16 01:32:29;;;;;;;;;;;19.90;46.70;;;;;;5117170;27;19935;-59
2023/12/16 01:34:56;;;;;;;;;;;19.90;46.70;;;;;;5097912;27;19966;-60
2023/12/16 01:37:23;;;;;;;;;;;19.90;46.70;;;;;;5115056;27;20022;-59
2023/12/16 01:39:49;;;;;;;;;;;19.90;46.70;;;;;;5105660;28;19932;-59
2023/12/16 01:42:16;;;;;;;;;;;19.90;46.80;;;;;;5099521;28;19923;-59
2023/12/16 01:44:43;;;;;;;;;;;19.90;46.70;;;;;;5116868;27;19954;-59
2023/12/16 01:47:09;;;;;;;;;;;19.90;46.70;;;;;;5118865;27;19928;-60
2023/12/16 01:49:38;;;;;;;;;;;19.90;46.70;;;;;;5124692;27;19928;-59
2023/12/16 01:52:06;;;;;;;;;;;19.90;46.70;;;;;;5103560;27;20026;-59
2023/12/16 01:54:32;;;;;;;;;;;19.90;46.70;;;;;;5113280;27;19927;-60
2023/12/16 01:56:59;;;;;;;;;;;19.90;46.70;;;;;;5092781;28;19924;-59
2023/12/16 01:59:26;;;;;;;;;;;19.90;46.70;;;;;;5107209;27;19927;-60
2023/12/16 02:01:53;;;;;;;;;;;19.90;46.70;;;;;;5102568;27;19928;-59
2023/12/16 02:04:20;;;;;;;;;;;19.90;46.70;;;;;;5101578;27;19924;-59
2023/12/16 02:06:48;;;;;;;;;;;19.90;46.70;;;;;;5103562;27;20556;-59
2023/12/16 02:09:17;;;;;;;;;;;19.90;46.70;;;;;;5109674;27;19981;-59
2023/12/16 02:11:44;;;;;;;;;;;19.90;46.60;;;;;;5102649;27;19924;-59
2023/12/16 02:14:10;;;;;;;;;;;19.90;46.60;;;;;;5102444;28;19924;-59
2023/12/16 02:16:38;;;;;;;;;;;19.90;46.60;;;;;;5102272;27;19923;-60
2023/12/16 02:19:05;;;;;;;;;;;19.90;46.60;;;;;;5106137;27;19935;-59
2023/12/16 02:21:31;;;;;;;;;;;19.80;47.20;;;;;;5097515;27;20134;-59
2023/12/16 02:23:59;;;;;;;;;;;19.90;46.60;;;;;;5100079;27;19924;-59
2023/12/16 02:26:26;;;;;;;;;;;19.90;46.60;;;;;;5105277;27;19931;-59
2023/12/16 02:28:53;;;;;;;;;;;19.90;46.60;;;;;;5101067;28;19927;-60
2023/12/16 02:31:20;;;;;;;;;;;19.90;46.60;;;;;;5096813;28;19931;-59
2023/12/16 02:33:46;;;;;;;;;;;19.90;46.60;;;;;;5092109;28;19930;-59
2023/12/16 02:36:13;;;;;;;;;;;19.80;46.50;;;;;;5094522;28;19972;-58
2023/12/16 02:38:40;;;;;;;;;;;19.90;46.60;;;;;;5095190;28;19931;-60
2023/12/16 02:41:08;;;;;;;;;;;19.90;46.60;;;;;;5095582;28;19924;-59
2023/12/16 02:43:35;;;;;;;;;;;19.90;46.60;;;;;;5088078;28;19931;-59
2023/12/16 02:46:01;;;;;;;;;;;19.90;46.60;;;;;;5105567;27;19970;-60
2023/12/16 02:48:28;;;;;;;;;;;19.90;46.60;;;;;;5095143;28;19927;-59
2023/12/16 02:50:55;;;;;;;;;;;19.90;46.60;;;;;;5092586;28;19924;-59
2023/12/16 02:53:22;;;;;;;;;;;19.90;46.60;;;;;;5107611;28;19973;-59
2023/12/16 02:55:48;;;;;;;;;;;19.90;46.70;;;;;;5099944;28;19920;-59
2023/12/16 02:58:16;;;;;;;;;;;19.90;46.60;;;;;;5102859;28;19930;-59
2023/12/16 03:00:43;;;;;;;;;;;19.90;46.60;;;;;;5099410;28;20030;-58
2023/12/16 03:03:10;;;;;;;;;;;19.90;46.60;;;;;;5089390;28;19924;-59
2023/12/16 03:05:37;;;;;;;;;;;19.90;46.60;;;;;;5088473;28;19924;-57
2023/12/16 03:08:04;;;;;;;;;;;19.90;46.60;;;;;;5097647;28;19932;-56
2023/12/16 03:10:31;;;;;;;;;;;19.90;46.70;;;;;;5094066;28;19931;-58
2023/12/16 03:12:58;;;;;;;;;;;19.90;46.60;;;;;;5094437;28;19924;-57
2023/12/16 03:15:26;;;;;;;;;;;19.90;46.60;;;;;;5112361;28;19924;-57
2023/12/16 03:17:53;;;;;;;;;;;19.90;46.60;;;;;;5094474;28;20377;-58
2023/12/16 03:20:20;;;;;;;;;;;19.90;46.60;;;;;;5095509;28;19947;-58
2023/12/16 03:22:46;;;;;;;;;;;19.90;46.70;;;;;;5091130;28;19923;-57
2023/12/16 03:25:13;;;;;;;;;;;19.90;46.70;;;;;;5099369;28;19935;-56
2023/12/16 03:27:40;;;;;;;;;;;19.90;46.60;;;;;;5112679;28;19928;-57
2023/12/16 03:30:07;;;;;;;;;;;19.90;46.60;;;;;;5105653;28;19977;-58
2023/12/16 03:32:35;;;;;;;;;;;19.90;46.60;;;;;;5093201;28;20044;-56
2023/12/16 03:35:02;;;;;;;;;;;19.90;46.60;;;;;;5120500;27;20142;-56
2023/12/16 03:37:29;;;;;;;;;;;19.90;46.60;;;;;;5105578;27;19969;-57
2023/12/16 03:39:56;;;;;;;;;;;19.90;46.60;;;;;;5094727;27;19931;-56
2023/12/16 03:42:23;;;;;;;;;;;19.90;47.20;;;;;;5121559;27;19923;-57
2023/12/16 03:44:49;;;;;;;;;;;19.90;46.70;;;;;;5102502;28;19927;-57
2023/12/16 03:47:16;;;;;;;;;;;19.90;46.70;;;;;;5098275;28;19927;-56
2023/12/16 03:49:44;;;;;;;;;;;19.90;46.70;;;;;;5106432;28;19928;-57
2023/12/16 03:52:11;;;;;;;;;;;19.90;46.70;;;;;;5101282;28;19924;-57
2023/12/16 03:54:38;;;;;;;;;;;19.90;46.60;;;;;;5099996;28;19923;-56
2023/12/16 03:57:06;;;;;;;;;;;19.90;46.70;;;;;;5095851;28;19977;-57
2023/12/16 03:59:32;;;;;;;;;;;19.90;46.70;;;;;;5095668;28;19962;-59
2023/12/16 04:01:59;;;;;;;;;;;19.90;46.60;;;;;;5112399;28;19920;-59
2023/12/16 04:04:26;;;;;;;;;;;19.90;46.60;;;;;;5096578;28;19924;-59
2023/12/16 04:06:58;;;;;;;;;;;19.90;46.60;;;;;;5125975;28;19931;-57
2023/12/16 04:09:25;;;;;;;;;;;19.90;46.60;;;;;;5104701;28;19928;-57
2023/12/16 04:11:51;;;;;;;;;;;19.90;46.70;;;;;;5101279;28;19970;-56
2023/12/16 04:14:18;;;;;;;;;;;19.90;46.60;;;;;;5098464;28;19924;-57
2023/12/16 04:16:45;;;;;;;;;;;19.90;46.60;;;;;;5096712;28;19988;-57
2023/12/16 04:19:12;;;;;;;;;;;19.90;46.60;;;;;;5114175;28;19934;-59
2023/12/16 04:21:39;;;;;;;;;;;19.90;46.60;;;;;;5098964;28;19924;-56
2023/12/16 04:24:07;;;;;;;;;;;19.90;46.60;;;;;;5103269;28;19928;-59
2023/12/16 04:26:35;;;;;;;;;;;19.90;46.60;;;;;;5104555;28;19928;-59
2023/12/16 04:29:02;;;;;;;;;;;19.90;46.60;;;;;;5105244;27;19923;-59
2023/12/16 04:31:29;;;;;;;;;;;19.90;46.60;;;;;;5104423;27;19920;-57
2023/12/16 04:33:55;;;;;;;;;;;19.90;46.60;;;;;;5107408;27;19949;-58
2023/12/16 04:36:23;;;;;;;;;;;19.90;46.60;;;;;;5096838;28;19977;-57
2023/12/16 04:38:49;;;;;;;;;;;19.90;46.60;;;;;;5096413;28;20446;-58
2023/12/16 04:41:18;;;;;;;;;;;19.90;46.60;;;;;;5116118;27;19969;-57
2023/12/16 04:43:45;;;;;;;;;;;19.90;46.60;;;;;;5120704;27;19946;-57
2023/12/16 04:46:11;;;;;;;;;;;19.90;46.60;;;;;;5114196;28;19925;-60
2023/12/16 04:48:38;;;;;;;;;;;19.90;46.60;;;;;;5096712;28;19924;-60
2023/12/16 04:51:05;;;;;;;;;;;19.90;46.60;;;;;;5104870;28;19931;-57
2023/12/16 04:53:32;;;;;;;;;;;19.90;46.60;;;;;;5096514;28;19934;-57
2023/12/16 04:56:00;;;;;;;;;;;19.90;46.60;;;;;;5095182;28;20136;-57
2023/12/16 04:58:29;;;;;;;;;;;19.90;46.60;;;;;;5097417;28;19924;-57
2023/12/16 05:00:55;;;;;;;;;;;19.90;46.50;;;;;;5092880;28;19935;-59
2023/12/16 05:03:22;;;;;;;;;;;19.90;46.60;;;;;;5100215;28;19980;-57
2023/12/16 05:05:49;;;;;;;;;;;19.90;46.50;;;;;;5096647;28;19934;-57
2023/12/16 05:08:16;;;;;;;;;;;19.90;46.60;;;;;;5104282;28;19973;-57
2023/12/16 05:10:45;;;;;;;;;;;19.80;46.50;;;;;;5114956;28;19924;-57
2023/12/16 05:13:12;;;;;;;;;;;19.90;46.60;;;;;;5102869;28;19924;-57
2023/12/16 05:15:40;;;;;;;;;;;19.90;46.60;;;;;;5113143;27;19976;-57
2023/12/16 05:18:07;;;;;;;;;;;19.90;46.60;;;;;;5094797;28;19923;-57
2023/12/16 05:20:34;;;;;;;;;;;19.90;46.50;;;;;;5095537;28;19961;-56
2023/12/16 05:23:00;;;;;;;;;;;19.90;46.50;;;;;;5100458;28;19930;-57
2023/12/16 05:25:27;;;;;;;;;;;19.90;46.50;;;;;;5090210;28;19931;-56
2023/12/16 05:27:54;;;;;;;;;;;19.90;46.50;;;;;;5099757;28;19924;-58
2023/12/16 05:30:21;;;;;;;;;;;19.90;46.50;;;;;;5114226;28;19923;-57
2023/12/16 05:32:49;;;;;;;;;;;19.90;46.50;;;;;;5097393;28;19924;-57
2023/12/16 05:35:16;;;;;;;;;;;19.90;46.50;;;;;;5093688;28;19980;-57
2023/12/16 05:37:43;;;;;;;;;;;19.90;46.50;;;;;;5096405;28;19923;-56
2023/12/16 05:40:10;;;;;;;;;;;19.90;46.50;;;;;;5098672;27;19923;-57
2023/12/16 05:42:36;;;;;;;;;;;19.90;46.50;;;;;;5114844;27;19932;-58
2023/12/16 05:45:04;;;;;;;;;;;19.90;46.50;;;;;;5100901;28;19977;-57
2023/12/16 05:47:30;;;;;;;;;;;19.90;46.50;;;;;;5104150;28;19927;-58
2023/12/16 05:49:58;;;;;;;;;;;19.90;46.50;;;;;;5100887;28;19993;-57
2023/12/16 05:52:25;;;;;;;;;;;19.90;46.50;;;;;;5102816;28;19919;-56
2023/12/16 05:54:52;;;;;;;;;;;19.90;46.50;;;;;;5115657;27;20009;-57
2023/12/16 05:57:18;;;;;;;;;;;19.90;46.50;;;;;;5111358;28;19924;-58
2023/12/16 05:59:45;;;;;;;;;;;19.90;46.50;;;;;;5095873;28;19920;-58
2023/12/16 06:02:12;;;;;;;;;;;19.80;46.40;;;;;;5105775;28;19928;-57
2023/12/16 06:04:39;;;;;;;;;;;19.80;46.40;;;;;;5096953;28;19973;-58
2023/12/16 06:07:07;;;;;;;;;;;19.90;46.40;;;;;;5095715;28;19967;-56
2023/12/16 06:09:34;;;;;;;;;;;19.90;46.40;;;;;;5113439;28;19985;-57
2023/12/16 06:12:01;;;;;;;;;;;19.90;46.40;;;;;;5112126;27;19923;-56
2023/12/16 06:14:28;;;;;;;;;;;19.90;46.40;;;;;;5106749;28;19924;-57
2023/12/16 06:16:54;;;;;;;;;;;19.90;46.40;;;;;;5113706;28;19928;-57
2023/12/16 06:19:21;;;;;;;;;;;19.90;46.40;;;;;;5115798;27;19920;-57
2023/12/16 06:21:48;;;;;;;;;;;19.90;46.40;;;;;;5110082;28;19927;-57
2023/12/16 06:24:16;;;;;;;;;;;19.90;46.50;;;;;;5102284;28;20305;-57
2023/12/16 06:26:43;;;;;;;;;;;19.90;46.40;;;;;;5101621;28;19924;-60
2023/12/16 06:29:09;;;;;;;;;;;19.90;46.40;;;;;;5114672;27;19924;-57
2023/12/16 06:31:36;;;;;;;;;;;19.90;46.40;;;;;;5101257;27;20022;-57
2023/12/16 06:34:03;;;;;;;;;;;19.90;46.40;;;;;;5103813;28;19981;-58
2023/12/16 06:36:30;;;;;;;;;;;19.90;46.40;;;;;;5094385;28;19924;-59
2023/12/16 06:38:57;;;;;;;;;;;19.80;46.30;;;;;;5095068;28;20111;-57
2023/12/16 06:41:25;;;;;;;;;;;19.90;46.40;;;;;;5095437;27;19923;-58
2023/12/16 06:43:51;;;;;;;;;;;19.90;46.40;;;;;;5100275;28;19927;-57
2023/12/16 06:46:19;;;;;;;;;;;19.90;46.40;;;;;;5102907;27;20022;-57
2023/12/16 06:48:46;;;;;;;;;;;19.90;46.40;;;;;;5094668;28;19983;-58
2023/12/16 06:51:13;;;;;;;;;;;19.90;46.40;;;;;;5102277;28;19931;-58
2023/12/16 06:53:39;;;;;;;;;;;19.90;46.40;;;;;;5100774;28;19928;-57
2023/12/16 06:56:07;;;;;;;;;;;19.90;46.40;;;;;;5113205;27;19928;-57
2023/12/16 06:58:35;;;;;;;;;;;19.90;46.40;;;;;;5114089;27;19923;-57
2023/12/16 07:01:02;;;;;;;;;;;19.90;46.40;;;;;;5102936;28;19927;-57
2023/12/16 07:03:29;;;;;;;;;;;19.90;46.40;;;;;;5096502;28;19924;-58
2023/12/16 07:05:56;;;;;;;;;;;19.90;46.40;;;;;;5093265;28;19928;-58
2023/12/16 07:08:23;;;;;;;;;;;19.90;46.40;;;;;;5093653;28;19923;-58
2023/12/16 07:10:49;;;;;;;;;;;19.90;46.40;;;;;;5094246;28;19947;-56
2023/12/16 07:13:16;;;;;;;;;;;19.90;46.40;;;;;;5093714;28;19973;-58
2023/12/16 07:15:45;;;;;;;;;;;19.90;46.40;;;;;;5093601;28;19923;-57
2023/12/16 07:18:12;;;;;;;;;;;19.90;46.40;;;;;;5094468;28;19973;-58
2023/12/16 07:20:38;;;;;;;;;;;19.90;46.30;;;;;;5096493;28;19935;-57
2023/12/16 07:23:05;;;;;;;;;;;19.80;46.20;;;;;;5116463;27;19938;-59
2023/12/16 07:25:32;;;;;;;;;;;19.90;46.30;;;;;;5111342;28;19966;-58
2023/12/16 07:27:59;;;;;;;;;;;19.90;46.30;;;;;;5100253;28;19923;-58
2023/12/16 07:30:25;;;;;;;;;;;19.90;46.30;;;;;;5093319;28;19923;-57
2023/12/16 07:32:53;;;;;;;;;;;19.90;46.30;;;;;;5094004;28;19927;-58
2023/12/16 07:35:20;;;;;;;;;;;19.90;46.30;;;;;;5101192;28;19924;-57
2023/12/16 07:37:47;;;;;;;;;;;19.90;46.30;;;;;;5111226;28;19923;-57
2023/12/16 07:40:14;;;;;;;;;;;19.90;46.30;;;;;;5094122;28;19935;-57
2023/12/16 07:42:41;;;;;;;;;;;19.80;46.20;;;;;;5096421;28;19927;-57
2023/12/16 07:45:08;;;;;;;;;;;19.90;46.30;;;;;;5110764;28;19936;-57
2023/12/16 07:47:35;;;;;;;;;;;19.80;46.10;;;;;;5111307;28;19919;-57
2023/12/16 07:50:03;;;;;;;;;;;19.90;46.20;;;;;;5101960;28;20215;-58
2023/12/16 07:52:30;;;;;;;;;;;19.80;46.10;;;;;;5098534;28;20014;-57
2023/12/16 07:54:57;;;;;;;;;;;19.90;46.20;;;;;;5092699;28;19931;-58
2023/12/16 07:57:23;;;;;;;;;;;19.90;46.20;;;;;;5100400;28;19928;-57
2023/12/16 07:59:50;;;;;;;;;;;19.90;46.20;;;;;;5110592;28;20447;-58
2023/12/16 08:02:17;;;;;;;;;;;19.90;46.20;;;;;;5095310;28;19932;-58
2023/12/16 08:04:45;;;;;;;;;;;19.90;46.20;;;;;;5101530;27;20180;-59
2023/12/16 08:07:13;;;;;;;;;;;19.80;46.10;;;;;;5100263;28;20022;-58
2023/12/16 08:09:39;;;;;;;;;;;19.80;46.10;;;;;;5099391;28;19928;-58
2023/12/16 08:12:07;;;;;;;;;;;19.80;46.10;;;;;;5113700;28;19924;-58
2023/12/16 08:14:34;;;;;;;;;;;19.80;46.10;;;;;;5100079;28;19931;-57
2023/12/16 08:17:00;;;;;;;;;;;19.80;46.10;;;;;;5102787;28;19977;-58
2023/12/16 08:19:27;;;;;;;;;;;19.80;46.10;;;;;;5110528;28;19927;-58
2023/12/16 08:21:54;;;;;;;;;;;19.80;46.10;;;;;;5100156;28;19955;-58
2023/12/16 08:24:22;;;;;;;;;;;19.80;46.10;;;;;;5101571;28;19931;-58
2023/12/16 08:26:49;;;;;;;;;;;19.80;46.10;;;;;;5099268;28;19928;-58
2023/12/16 08:29:16;;;;;;;;;;;19.80;46.10;;;;;;5100867;28;19955;-58
2023/12/16 08:31:44;;;;;;;;;;;19.80;46.00;;;;;;5113822;28;19924;-58
2023/12/16 08:34:11;;;;;;;;;;;19.80;46.00;;;;;;5091659;27;19963;-58
2023/12/16 08:36:38;;;;;;;;;;;19.80;46.00;;;;;;5116847;27;20028;-58
2023/12/16 08:39:05;;;;;;;;;;;19.80;46.00;;;;;;5102668;27;19969;-58
2023/12/16 08:41:33;;;;;;;;;;;19.80;46.10;;;;;;5103612;27;19931;-58
2023/12/16 08:43:59;;;;;;;;;;;19.80;46.00;;;;;;5115068;27;20020;-57
2023/12/16 08:46:26;;;;;;;;;;;19.80;46.00;;;;;;5102341;28;19924;-58
2023/12/16 08:48:55;;;;;;;;;;;19.80;46.00;;;;;;5103930;27;19959;-57
2023/12/16 08:51:22;;;;;;;;;;;19.80;46.00;;;;;;5101428;28;19932;-58
2023/12/16 08:53:49;;;;;;;;;;;19.80;46.00;;;;;;5103699;27;19923;-58
2023/12/16 08:56:17;;;;;;;;;;;19.80;46.00;;;;;;5079585;27;19952;-58
2023/12/16 08:58:46;;;;;;;;;;;19.80;46.00;;;;;;5099357;27;20027;-58
2023/12/16 09:01:13;;;;;;;;;;;19.80;46.00;;;;;;5098147;28;19923;-58
2023/12/16 09:03:42;;;;;;;;;;;19.80;46.00;;;;;;5118512;27;19958;-59
2023/12/16 09:06:08;;;;;;;;;;;19.80;46.00;;;;;;5098357;27;19924;-58
2023/12/16 09:08:35;;;;;;;;;;;19.80;46.00;;;;;;5098816;27;19984;-58
2023/12/16 09:11:02;;;;;;;;;;;19.80;46.60;;;;;;5122500;27;19932;-59
2023/12/16 09:13:29;;;;;;;;;;;19.80;46.00;;;;;;5098323;27;20375;-59
2023/12/16 09:15:57;;;;;;;;;;;19.80;46.00;;;;;;5090819;27;19923;-58
2023/12/16 09:18:24;;;;;;;;;;;19.90;46.10;;;;;;5102303;28;19924;-57
2023/12/16 09:20:50;;;;;;;;;;;19.80;46.00;;;;;;5088836;28;19927;-58
2023/12/16 09:23:17;;;;;;;;;;;19.80;45.70;;;;;;5106762;27;19924;-58
2023/12/16 09:25:44;;;;;;;;;;;19.80;45.20;;;;;;5121966;27;20425;-58
2023/12/16 09:28:11;;;;;;;;;;;19.80;45.10;;;;;;5097662;27;19923;-58
2023/12/16 09:30:38;;;;;;;;;;;19.80;45.10;;;;;;5098267;27;19978;-58
2023/12/16 09:33:06;;;;;;;;;;;19.80;45.20;;;;;;5097466;27;19997;-59
2023/12/16 09:35:33;;;;;;;;;;;19.80;45.30;;;;;;5103358;27;19935;-58
2023/12/16 09:38:00;;;;;;;;;;;19.70;45.20;;;;;;5097485;28;19927;-58
2023/12/16 09:40:26;;;;;;;;;;;19.80;45.40;;;;;;5115682;27;19924;-58
2023/12/16 09:42:53;;;;;;;;;;;19.80;45.40;;;;;;5091571;28;19985;-59
2023/12/16 09:45:20;;;;;;;;;;;19.80;45.40;;;;;;5101667;27;19932;-58
2023/12/16 09:47:48;;;;;;;;;;;19.80;45.50;;;;;;5114304;27;19939;-58
2023/12/16 09:50:16;;;;;;;;;;;19.80;45.50;;;;;;5097419;27;19924;-57
2023/12/16 09:52:43;;;;;;;;;;;19.80;45.50;;;;;;5100017;27;19928;-59
2023/12/16 09:55:10;;;;;;;;;;;19.80;45.50;;;;;;5094518;28;19981;-58
2023/12/16 09:57:37;;;;;;;;;;;19.80;45.50;;;;;;5102063;28;19931;-58
2023/12/16 10:00:04;;;;;;;;;;;19.80;45.50;;;;;;5101036;28;19924;-59
2023/12/16 10:02:31;;;;;;;;;;;19.80;45.60;;;;;;5115850;27;19924;-57
2023/12/16 10:04:58;;;;;;;;;;;19.80;45.60;;;;;;5100887;27;19919;-58
2023/12/16 10:07:26;;;;;;;;;;;19.80;45.60;;;;;;5097392;27;19927;-58
2023/12/16 10:09:53;;;;;;;;;;;19.80;45.60;;;;;;5103348;27;19923;-59
2023/12/16 10:12:20;;;;;;;;;;;19.80;45.60;;;;;;5112733;27;19931;-58
2023/12/16 10:14:47;;;;;;;;;;;19.80;45.60;;;;;;5123556;27;19927;-58
2023/12/16 10:17:16;;;;;;;;;;;19.80;45.60;;;;;;5098936;27;19980;-58
2023/12/16 10:19:43;;;;;;;;;;;19.80;45.50;;;;;;5105751;27;19968;-59
2023/12/16 10:22:10;;;;;;;;;;;19.80;45.50;;;;;;5103616;27;19927;-59
2023/12/16 10:24:39;;;;;;;;;;;19.80;45.50;;;;;;5093962;28;19924;-59
2023/12/16 10:27:05;;;;;;;;;;;19.80;45.60;;;;;;5103130;27;19924;-59
2023/12/16 10:29:33;;;;;;;;;;;19.80;45.60;;;;;;5102442;28;19935;-58
2023/12/16 10:31:59;;;;;;;;;;;19.80;45.60;;;;;;5109067;28;20110;-58
2023/12/16 10:34:28;;;;;;;;;;;19.80;45.60;;;;;;5110151;28;19973;-58
2023/12/16 10:36:58;;;;;;;;;;;19.80;45.60;;;;;;5114195;27;19931;-58
2023/12/16 10:39:25;;;;;;;;;;;19.80;45.70;;;;;;5112409;28;19969;-58
2023/12/16 10:41:53;;;;;;;;;;;19.80;45.60;;;;;;5097401;28;19930;-58
2023/12/16 10:44:21;;;;;;;;;;;19.80;45.60;;;;;;5095123;28;20004;-58
2023/12/16 10:46:48;;;;;;;;;;;19.80;45.70;;;;;;5094235;28;20007;-58
2023/12/16 10:49:15;;;;;;;;;;;19.80;45.60;;;;;;5095146;28;19924;-58
2023/12/16 10:51:43;;;;;;;;;;;19.80;45.60;;;;;;5093972;28;19984;-58
2023/12/16 10:54:10;;;;;;;;;;;19.80;45.60;;;;;;5089891;28;19924;-57
2023/12/16 10:56:38;;;;;;;;;;;19.80;45.60;;;;;;5096104;28;20016;-58
2023/12/16 10:59:06;;;;;;;;;;;19.80;45.70;;;;;;5112078;28;19946;-58
2023/12/16 11:01:35;;;;;;;;;;;19.80;45.70;;;;;;5081358;28;20019;-57
2023/12/16 11:04:04;;;;;;;;;;;19.80;45.60;;;;;;5112835;28;19989;-57
2023/12/16 11:06:32;;;;;;;;;;;19.80;45.70;;;;;;5093473;28;20384;-58
2023/12/16 11:09:00;;;;;;;;;;;19.80;45.60;;;;;;5103122;28;19977;-57
2023/12/16 11:11:27;;;;;;;;;;;19.80;45.70;;;;;;5092911;28;19930;-57
2023/12/16 11:13:55;;;;;;;;;;;19.80;45.70;;;;;;5088917;28;19930;-58
2023/12/16 11:16:26;;;;;;;;;;;19.90;45.80;;;;;;5093213;28;19924;-58
2023/12/16 11:18:53;;;;;;;;;;;19.80;45.70;;;;;;5112273;28;19924;-58
2023/12/16 11:21:20;;;;;;;;;;;19.80;45.70;;;;;;5093782;28;19935;-58
2023/12/16 11:23:47;;;;;;;;;;;19.80;45.70;;;;;;5111343;28;19924;-58
2023/12/16 11:26:14;;;;;;;;;;;19.80;45.70;;;;;;5091098;28;19930;-58
2023/12/16 11:28:41;;;;;;;;;;;19.80;45.70;;;;;;5102481;28;19928;-58
2023/12/16 11:31:08;;;;;;;;;;;19.80;45.70;;;;;;5099558;28;19924;-58
2023/12/16 11:33:45;;;;;;;;;;;19.80;45.70;;;;;;5097299;28;19935;-58
2023/12/16 11:36:12;;;;;;;;;;;19.80;45.70;;;;;;5098752;28;19924;-58
2023/12/16 11:38:41;;;;;;;;;;;19.90;45.80;;;;;;5094191;28;19927;-58
2023/12/16 11:41:08;;;;;;;;;;;19.80;45.70;;;;;;5113662;27;19931;-57
2023/12/16 11:43:47;;;;;;;;;;;19.90;45.80;;;;;;5098711;28;19930;-58
2023/12/16 11:46:28;;;;;;;;;;;19.80;45.70;;;;;;5106748;28;19923;-58
2023/12/16 11:48:56;;;;;;;;;;;19.80;45.70;;;;;;5109430;28;19924;-58
2023/12/16 11:51:23;;;;;;;;;;;19.90;45.80;;;;;;5110828;28;19923;-57
2023/12/16 11:53:50;;;;;;;;;;;19.80;45.70;;;;;;5094062;28;19927;-57
2023/12/16 11:56:17;;;;;;;;;;;19.80;45.70;;;;;;5096004;28;19977;-57
2023/12/16 11:58:43;;;;;;;;;;;19.90;45.80;;;;;;5104998;28;19951;-58
2023/12/16 12:01:10;;;;;;;;;;;19.80;45.70;;;;;;5096811;28;19986;-58
2023/12/16 12:03:37;;;;;;;;;;;19.90;45.80;;;;;;5095034;28;19951;-57
2023/12/16 12:06:05;;;;;;;;;;;19.90;45.80;;;;;;5098084;28;19931;-57
2023/12/16 12:08:32;;;;;;;;;;;19.90;45.80;;;;;;5103843;28;19928;-57
2023/12/16 12:10:59;;;;;;;;;;;19.90;45.80;;;;;;5096624;28;20021;-58
2023/12/16 12:13:26;;;;;;;;;;;19.90;45.80;;;;;;5101930;28;20265;-58
2023/12/16 12:15:52;;;;;;;;;;;19.90;45.80;;;;;;5092497;28;19934;-58
2023/12/16 12:18:19;;;;;;;;;;;19.80;45.70;;;;;;5110552;28;19928;-58
2023/12/16 12:20:46;;;;;;;;;;;19.90;45.80;;;;;;5110858;28;19981;-57
2023/12/16 12:23:14;;;;;;;;;;;19.80;45.70;;;;;;5111675;28;19924;-58
2023/12/16 12:25:41;;;;;;;;;;;19.90;45.80;;;;;;5100176;28;19928;-58
2023/12/16 12:28:09;;;;;;;;;;;19.90;45.80;;;;;;5112455;28;19931;-57
2023/12/16 12:30:36;;;;;;;;;;;19.90;45.80;;;;;;5091561;28;19928;-57
2023/12/16 12:33:02;;;;;;;;;;;19.80;45.70;;;;;;5090025;28;19991;-59
2023/12/16 12:35:29;;;;;;;;;;;19.90;45.80;;;;;;5100833;28;19939;-57
2023/12/16 12:37:57;;;;;;;;;;;19.90;45.80;;;;;;5097340;28;19935;-58
2023/12/16 12:40:25;;;;;;;;;;;19.90;45.80;;;;;;5111612;28;19924;-58
2023/12/16 12:42:53;;;;;;;;;;;19.90;45.80;;;;;;5105481;28;19927;-58
2023/12/16 12:45:23;;;;;;;;;;;19.90;45.80;;;;;;5094288;28;19930;-59
2023/12/16 12:47:50;;;;;;;;;;;19.80;45.70;;;;;;5092898;28;19928;-58
2023/12/16 12:50:20;;;;;;;;;;;19.90;45.80;;;;;;5115049;28;19931;-58
2023/12/16 12:52:47;;;;;;;;;;;19.90;45.80;;;;;;5100046;28;19984;-58
2023/12/16 12:55:14;;;;;;;;;;;19.90;45.80;;;;;;5109789;27;19924;-59
2023/12/16 12:57:42;;;;;;;;;;;19.90;45.80;;;;;;5116568;27;19928;-60
2023/12/16 13:00:09;;;;;;;;;;;19.90;45.80;;;;;;5118494;27;19931;-59
2023/12/16 13:02:36;;;;;;;;;;;19.90;45.80;;;;;;5104256;28;19928;-60
2023/12/16 13:05:03;;;;;;;;;;;19.90;45.80;;;;;;5103462;28;19938;-59
2023/12/16 13:07:30;;;;;;;;;;;19.90;45.80;;;;;;5105581;28;19977;-56
2023/12/16 13:09:57;;;;;;;;;;;19.90;45.80;;;;;;5100122;28;20031;-58
2023/12/16 13:12:24;;;;;;;;;;;19.80;45.70;;;;;;5117171;28;20392;-60
2023/12/16 13:14:52;;;;;;;;;;;19.90;45.80;;;;;;5117713;28;19932;-58
2023/12/16 13:17:19;;;;;;;;;;;19.90;45.80;;;;;;5099521;28;19924;-58
2023/12/16 13:19:46;;;;;;;;;;;19.90;45.80;;;;;;5112400;28;19924;-59
2023/12/16 13:22:13;;;;;;;;;;;19.90;45.80;;;;;;5116309;27;19928;-57
2023/12/16 13:24:40;;;;;;;;;;;19.80;45.70;;;;;;5114700;27;19930;-57
2023/12/16 13:27:07;;;;;;;;;;;19.90;45.80;;;;;;5124770;27;19931;-60
2023/12/16 13:29:33;;;;;;;;;;;19.90;45.80;;;;;;5098195;28;19931;-60
2023/12/16 13:32:02;;;;;;;;;;;19.90;45.80;;;;;;5097637;28;19920;-58
2023/12/16 13:34:29;;;;;;;;;;;19.80;45.70;;;;;;5090722;28;19923;-59
2023/12/16 13:36:56;;;;;;;;;;;19.90;45.80;;;;;;5099159;28;19924;-58
2023/12/16 13:39:23;;;;;;;;;;;19.90;45.80;;;;;;5122529;27;20014;-58
2023/12/16 13:41:49;;;;;;;;;;;19.90;45.80;;;;;;5108165;28;19924;-55
2023/12/16 13:44:16;;;;;;;;;;;19.90;45.80;;;;;;5083197;28;19924;-58
2023/12/16 13:46:43;;;;;;;;;;;19.90;45.80;;;;;;5098983;28;20272;-60
2023/12/16 13:49:12;;;;;;;;;;;19.90;45.80;;;;;;5116681;28;19923;-58
2023/12/16 13:51:42;;;;;;;;;;;19.90;45.80;;;;;;5102917;28;19924;-56
2023/12/16 13:54:09;;;;;;;;;;;19.90;45.80;;;;;;5097167;28;19924;-58
2023/12/16 13:56:35;;;;;;;;;;;19.90;45.80;;;;;;5109186;27;19931;-60
2023/12/16 13:59:02;;;;;;;;;;;19.90;45.80;;;;;;5094752;28;19924;-59
2023/12/16 14:01:29;;;;;;;;;;;19.90;45.80;;;;;;5116292;28;20270;-59
2023/12/16 14:03:56;;;;;;;;;;;19.90;45.80;;;;;;5097406;28;19924;-58
2023/12/16 14:06:24;;;;;;;;;;;19.80;45.80;;;;;;5103205;28;19939;-58
2023/12/16 14:08:51;;;;;;;;;;;19.80;45.80;;;;;;5113088;28;19924;-58
2023/12/16 14:11:18;;;;;;;;;;;19.90;45.80;;;;;;5104698;28;19930;-57
2023/12/16 14:13:45;;;;;;;;;;;19.90;45.80;;;;;;5096222;28;20063;-59
2023/12/16 14:16:11;;;;;;;;;;;19.90;45.80;;;;;;5115580;27;19940;-59